sensor_id;sensor_type;location;lat;lon;timestamp;P1;durP1;ratioP1;P2;durP2;ratioP2
10418;SDS011;5256;48.728;9.140;2023-05-09T00:00:32;0.40;;;0.40;;
10418;SDS011;5256;48.728;9.140;2023-05-09T00:02:58;0.30;;;0.30;;
10418;SDS011;5256;48.728;9.140;2023-05-09T00:05:23;0.40;;;0.40;;
10418;SDS011;5256;48.728;9.140;2023-05-09T00:07:49;0.50;;;0.50;;
10418;SDS011;5256;48.728;9.140;2023-05-09T00:10:15;0.30;;;0.30;;
10418;SDS011;5256;48.728;9.140;2023-05-09T00:12:42;0.40;;;0.40;;
10418;SDS011;5256;48.728;9.140;2023-05-09T00:15:09;0.30;;;0.30;;
10418;SDS011;5256;48.728;9.140;2023-05-09T00:17:35;0.30;;;0.30;;
10418;SDS011;5256;48.728;9.140;2023-05-09T00:20:02;0.30;;;0.30;;
10418;SDS011;5256;48.728;9.140;2023-05-09T00:22:31;0.40;;;0.40;;
10418;SDS011;5256;48.728;9.140;2023-05-09T00:24:57;0.30;;;0.30;;
10418;SDS011;5256;48.728;9.140;2023-05-09T00:27:22;0.30;;;0.30;;
10418;SDS011;5256;48.728;9.140;2023-05-09T00:29:48;0.40;;;0.40;;
10418;SDS011;5256;48.728;9.140;2023-05-09T00:32:14;0.40;;;0.40;;
10418;SDS011;5256;48.728;9.140;2023-05-09T00:34:39;0.30;;;0.30;;
10418;SDS011;5256;48.728;9.140;2023-05-09T00:37:05;0.30;;;0.30;;
10418;SDS011;5256;48.728;9.140;2023-05-09T00:39:31;0.30;;;0.30;;
10418;SDS011;5256;48.728;9.140;2023-05-09T00:41:56;0.30;;;0.30;;
10418;SDS011;5256;48.728;9.140;2023-05-09T00:44:22;0.30;;;0.30;;
10418;SDS011;5256;48.728;9.140;2023-05-09T00:46:47;0.33;;;0.33;;
10418;SDS011;5256;48.728;9.140;2023-05-09T00:49:13;0.50;;;0.50;;
10418;SDS011;5256;48.728;9.140;2023-05-09T00:51:39;0.40;;;0.40;;
10418;SDS011;5256;48.728;9.140;2023-05-09T00:54:06;0.27;;;0.27;;
10418;SDS011;5256;48.728;9.140;2023-05-09T00:56:32;0.30;;;0.30;;
10418;SDS011;5256;48.728;9.140;2023-05-09T00:58:58;0.30;;;0.30;;
10418;SDS011;5256;48.728;9.140;2023-05-09T01:01:24;0.37;;;0.37;;
10418;SDS011;5256;48.728;9.140;2023-05-09T01:03:50;0.30;;;0.30;;
10418;SDS011;5256;48.728;9.140;2023-05-09T01:06:21;0.30;;;0.30;;
10418;SDS011;5256;48.728;9.140;2023-05-09T01:09:18;0.20;;;0.20;;
10418;SDS011;5256;48.728;9.140;2023-05-09T01:14:32;0.53;;;0.53;;
10418;SDS011;5256;48.728;9.140;2023-05-09T01:17:48;0.50;;;0.50;;
10418;SDS011;5256;48.728;9.140;2023-05-09T01:28:47;0.30;;;0.30;;
10418;SDS011;5256;48.728;9.140;2023-05-09T01:31:37;0.30;;;0.30;;
10418;SDS011;5256;48.728;9.140;2023-05-09T01:34:05;0.30;;;0.30;;
10418;SDS011;5256;48.728;9.140;2023-05-09T01:36:33;0.30;;;0.30;;
10418;SDS011;5256;48.728;9.140;2023-05-09T01:39:02;0.30;;;0.30;;
10418;SDS011;5256;48.728;9.140;2023-05-09T01:41:30;0.30;;;0.30;;
10418;SDS011;5256;48.728;9.140;2023-05-09T01:43:58;0.30;;;0.30;;
10418;SDS011;5256;48.728;9.140;2023-05-09T01:46:27;0.30;;;0.30;;
10418;SDS011;5256;48.728;9.140;2023-05-09T01:48:53;0.20;;;0.20;;
10418;SDS011;5256;48.728;9.140;2023-05-09T01:51:20;0.40;;;0.40;;
10418;SDS011;5256;48.728;9.140;2023-05-09T01:53:46;0.30;;;0.30;;
10418;SDS011;5256;48.728;9.140;2023-05-09T01:56:14;0.40;;;0.40;;
10418;SDS011;5256;48.728;9.140;2023-05-09T01:58:41;0.30;;;0.30;;
10418;SDS011;5256;48.728;9.140;2023-05-09T02:01:07;0.40;;;0.40;;
10418;SDS011;5256;48.728;9.140;2023-05-09T02:03:34;0.30;;;0.30;;
10418;SDS011;5256;48.728;9.140;2023-05-09T02:06:02;0.30;;;0.30;;
10418;SDS011;5256;48.728;9.140;2023-05-09T02:08:29;0.30;;;0.30;;
10418;SDS011;5256;48.728;9.140;2023-05-09T02:10:55;0.37;;;0.37;;
10418;SDS011;5256;48.728;9.140;2023-05-09T02:13:21;0.30;;;0.30;;
10418;SDS011;5256;48.728;9.140;2023-05-09T02:15:47;0.30;;;0.30;;
10418;SDS011;5256;48.728;9.140;2023-05-09T02:18:12;0.50;;;0.50;;
10418;SDS011;5256;48.728;9.140;2023-05-09T02:20:38;0.27;;;0.27;;
10418;SDS011;5256;48.728;9.140;2023-05-09T02:23:04;0.30;;;0.30;;
10418;SDS011;5256;48.728;9.140;2023-05-09T02:25:30;0.20;;;0.20;;
10418;SDS011;5256;48.728;9.140;2023-05-09T02:27:57;0.30;;;0.30;;
10418;SDS011;5256;48.728;9.140;2023-05-09T02:30:25;0.30;;;0.30;;
10418;SDS011;5256;48.728;9.140;2023-05-09T02:32:54;0.20;;;0.20;;
10418;SDS011;5256;48.728;9.140;2023-05-09T02:35:23;0.40;;;0.40;;
10418;SDS011;5256;48.728;9.140;2023-05-09T02:37:51;0.20;;;0.20;;
10418;SDS011;5256;48.728;9.140;2023-05-09T02:40:18;0.30;;;0.30;;
10418;SDS011;5256;48.728;9.140;2023-05-09T02:42:44;0.30;;;0.30;;
10418;SDS011;5256;48.728;9.140;2023-05-09T02:45:10;0.30;;;0.30;;
10418;SDS011;5256;48.728;9.140;2023-05-09T02:47:36;0.20;;;0.20;;
10418;SDS011;5256;48.728;9.140;2023-05-09T02:50:02;0.30;;;0.30;;
10418;SDS011;5256;48.728;9.140;2023-05-09T02:52:28;0.30;;;0.30;;
10418;SDS011;5256;48.728;9.140;2023-05-09T02:54:54;0.40;;;0.40;;
10418;SDS011;5256;48.728;9.140;2023-05-09T02:57:19;0.30;;;0.30;;
10418;SDS011;5256;48.728;9.140;2023-05-09T02:59:45;0.30;;;0.30;;
10418;SDS011;5256;48.728;9.140;2023-05-09T03:02:10;0.20;;;0.20;;
10418;SDS011;5256;48.728;9.140;2023-05-09T03:04:36;0.20;;;0.20;;
10418;SDS011;5256;48.728;9.140;2023-05-09T03:07:02;0.30;;;0.30;;
10418;SDS011;5256;48.728;9.140;2023-05-09T03:09:28;0.30;;;0.30;;
10418;SDS011;5256;48.728;9.140;2023-05-09T03:11:53;0.40;;;0.40;;
10418;SDS011;5256;48.728;9.140;2023-05-09T03:14:20;0.20;;;0.20;;
10418;SDS011;5256;48.728;9.140;2023-05-09T03:16:46;0.30;;;0.30;;
10418;SDS011;5256;48.728;9.140;2023-05-09T03:19:12;0.40;;;0.40;;
10418;SDS011;5256;48.728;9.140;2023-05-09T03:21:37;0.20;;;0.20;;
10418;SDS011;5256;48.728;9.140;2023-05-09T03:24:03;0.30;;;0.30;;
10418;SDS011;5256;48.728;9.140;2023-05-09T03:26:29;0.30;;;0.30;;
10418;SDS011;5256;48.728;9.140;2023-05-09T03:28:55;0.40;;;0.40;;
10418;SDS011;5256;48.728;9.140;2023-05-09T03:31:20;0.40;;;0.40;;
10418;SDS011;5256;48.728;9.140;2023-05-09T03:33:46;0.40;;;0.40;;
10418;SDS011;5256;48.728;9.140;2023-05-09T03:36:11;0.30;;;0.30;;
10418;SDS011;5256;48.728;9.140;2023-05-09T03:38:37;0.30;;;0.30;;
10418;SDS011;5256;48.728;9.140;2023-05-09T03:41:03;0.40;;;0.40;;
10418;SDS011;5256;48.728;9.140;2023-05-09T03:43:29;0.30;;;0.30;;
10418;SDS011;5256;48.728;9.140;2023-05-09T03:45:54;0.30;;;0.30;;
10418;SDS011;5256;48.728;9.140;2023-05-09T03:48:20;0.20;;;0.20;;
10418;SDS011;5256;48.728;9.140;2023-05-09T03:50:45;0.37;;;0.37;;
10418;SDS011;5256;48.728;9.140;2023-05-09T03:53:11;0.30;;;0.30;;
10418;SDS011;5256;48.728;9.140;2023-05-09T03:55:36;0.30;;;0.30;;
10418;SDS011;5256;48.728;9.140;2023-05-09T03:58:02;0.30;;;0.30;;
10418;SDS011;5256;48.728;9.140;2023-05-09T04:00:28;0.20;;;0.20;;
10418;SDS011;5256;48.728;9.140;2023-05-09T04:02:53;0.30;;;0.30;;
10418;SDS011;5256;48.728;9.140;2023-05-09T04:05:19;0.37;;;0.37;;
10418;SDS011;5256;48.728;9.140;2023-05-09T04:07:45;0.30;;;0.30;;
10418;SDS011;5256;48.728;9.140;2023-05-09T04:10:10;0.30;;;0.30;;
10418;SDS011;5256;48.728;9.140;2023-05-09T04:12:36;0.30;;;0.30;;
10418;SDS011;5256;48.728;9.140;2023-05-09T04:15:01;0.30;;;0.30;;
10418;SDS011;5256;48.728;9.140;2023-05-09T04:17:27;0.30;;;0.30;;
10418;SDS011;5256;48.728;9.140;2023-05-09T04:19:53;0.30;;;0.30;;
10418;SDS011;5256;48.728;9.140;2023-05-09T04:22:18;0.30;;;0.30;;
10418;SDS011;5256;48.728;9.140;2023-05-09T04:24:44;0.30;;;0.30;;
10418;SDS011;5256;48.728;9.140;2023-05-09T04:27:09;0.30;;;0.30;;
10418;SDS011;5256;48.728;9.140;2023-05-09T04:29:35;0.30;;;0.30;;
10418;SDS011;5256;48.728;9.140;2023-05-09T04:32:01;0.30;;;0.30;;
10418;SDS011;5256;48.728;9.140;2023-05-09T04:34:27;0.30;;;0.30;;
10418;SDS011;5256;48.728;9.140;2023-05-09T04:36:53;0.40;;;0.40;;
10418;SDS011;5256;48.728;9.140;2023-05-09T04:39:19;0.30;;;0.30;;
10418;SDS011;5256;48.728;9.140;2023-05-09T04:41:45;0.30;;;0.30;;
10418;SDS011;5256;48.728;9.140;2023-05-09T04:44:12;0.40;;;0.40;;
10418;SDS011;5256;48.728;9.140;2023-05-09T04:46:38;0.30;;;0.30;;
10418;SDS011;5256;48.728;9.140;2023-05-09T04:49:04;0.23;;;0.23;;
10418;SDS011;5256;48.728;9.140;2023-05-09T04:51:29;0.30;;;0.30;;
10418;SDS011;5256;48.728;9.140;2023-05-09T04:53:55;0.30;;;0.30;;
10418;SDS011;5256;48.728;9.140;2023-05-09T04:56:20;0.30;;;0.30;;
10418;SDS011;5256;48.728;9.140;2023-05-09T04:58:46;0.30;;;0.30;;
10418;SDS011;5256;48.728;9.140;2023-05-09T05:01:12;0.30;;;0.30;;
10418;SDS011;5256;48.728;9.140;2023-05-09T05:03:37;0.30;;;0.30;;
10418;SDS011;5256;48.728;9.140;2023-05-09T05:06:03;0.30;;;0.30;;
10418;SDS011;5256;48.728;9.140;2023-05-09T05:08:28;0.20;;;0.20;;
10418;SDS011;5256;48.728;9.140;2023-05-09T05:10:54;0.23;;;0.23;;
10418;SDS011;5256;48.728;9.140;2023-05-09T05:13:20;0.40;;;0.40;;
10418;SDS011;5256;48.728;9.140;2023-05-09T05:15:45;0.20;;;0.20;;
10418;SDS011;5256;48.728;9.140;2023-05-09T05:18:11;0.30;;;0.30;;
10418;SDS011;5256;48.728;9.140;2023-05-09T05:20:38;0.20;;;0.20;;
10418;SDS011;5256;48.728;9.140;2023-05-09T05:23:05;0.30;;;0.30;;
10418;SDS011;5256;48.728;9.140;2023-05-09T05:25:31;0.23;;;0.23;;
10418;SDS011;5256;48.728;9.140;2023-05-09T05:27:56;0.30;;;0.30;;
10418;SDS011;5256;48.728;9.140;2023-05-09T05:30:22;0.30;;;0.30;;
10418;SDS011;5256;48.728;9.140;2023-05-09T05:32:47;0.47;;;0.47;;
10418;SDS011;5256;48.728;9.140;2023-05-09T05:35:13;0.23;;;0.23;;
10418;SDS011;5256;48.728;9.140;2023-05-09T05:37:39;0.30;;;0.30;;
10418;SDS011;5256;48.728;9.140;2023-05-09T05:40:05;0.30;;;0.30;;
10418;SDS011;5256;48.728;9.140;2023-05-09T05:42:31;0.30;;;0.30;;
10418;SDS011;5256;48.728;9.140;2023-05-09T05:44:57;0.50;;;0.50;;
10418;SDS011;5256;48.728;9.140;2023-05-09T05:47:29;0.30;;;0.30;;
10418;SDS011;5256;48.728;9.140;2023-05-09T05:49:58;0.30;;;0.30;;
10418;SDS011;5256;48.728;9.140;2023-05-09T05:52:24;0.30;;;0.30;;
10418;SDS011;5256;48.728;9.140;2023-05-09T05:54:51;0.30;;;0.30;;
10418;SDS011;5256;48.728;9.140;2023-05-09T05:57:17;0.30;;;0.30;;
10418;SDS011;5256;48.728;9.140;2023-05-09T05:59:43;0.20;;;0.20;;
10418;SDS011;5256;48.728;9.140;2023-05-09T06:02:10;0.20;;;0.20;;
10418;SDS011;5256;48.728;9.140;2023-05-09T06:04:36;0.30;;;0.30;;
10418;SDS011;5256;48.728;9.140;2023-05-09T06:07:01;0.30;;;0.30;;
10418;SDS011;5256;48.728;9.140;2023-05-09T06:09:27;0.20;;;0.20;;
10418;SDS011;5256;48.728;9.140;2023-05-09T06:11:52;0.30;;;0.30;;
10418;SDS011;5256;48.728;9.140;2023-05-09T06:14:18;0.30;;;0.30;;
10418;SDS011;5256;48.728;9.140;2023-05-09T06:16:44;0.20;;;0.20;;
10418;SDS011;5256;48.728;9.140;2023-05-09T06:19:09;0.33;;;0.33;;
10418;SDS011;5256;48.728;9.140;2023-05-09T06:21:35;0.30;;;0.30;;
10418;SDS011;5256;48.728;9.140;2023-05-09T06:24:00;0.30;;;0.30;;
10418;SDS011;5256;48.728;9.140;2023-05-09T06:26:27;0.20;;;0.20;;
10418;SDS011;5256;48.728;9.140;2023-05-09T06:28:53;0.30;;;0.30;;
10418;SDS011;5256;48.728;9.140;2023-05-09T06:31:18;0.27;;;0.27;;
10418;SDS011;5256;48.728;9.140;2023-05-09T06:33:44;0.30;;;0.30;;
10418;SDS011;5256;48.728;9.140;2023-05-09T06:36:09;0.20;;;0.20;;
10418;SDS011;5256;48.728;9.140;2023-05-09T06:38:35;0.27;;;0.27;;
10418;SDS011;5256;48.728;9.140;2023-05-09T06:41:01;0.23;;;0.23;;
10418;SDS011;5256;48.728;9.140;2023-05-09T06:43:26;0.30;;;0.30;;
10418;SDS011;5256;48.728;9.140;2023-05-09T06:45:52;0.23;;;0.23;;
10418;SDS011;5256;48.728;9.140;2023-05-09T06:48:17;0.30;;;0.30;;
10418;SDS011;5256;48.728;9.140;2023-05-09T06:50:43;0.20;;;0.20;;
10418;SDS011;5256;48.728;9.140;2023-05-09T06:53:09;0.20;;;0.20;;
10418;SDS011;5256;48.728;9.140;2023-05-09T06:55:34;0.27;;;0.27;;
10418;SDS011;5256;48.728;9.140;2023-05-09T06:58:00;0.30;;;0.30;;
10418;SDS011;5256;48.728;9.140;2023-05-09T07:00:25;0.23;;;0.23;;
10418;SDS011;5256;48.728;9.140;2023-05-09T07:02:51;0.30;;;0.30;;
10418;SDS011;5256;48.728;9.140;2023-05-09T07:05:16;0.30;;;0.30;;
10418;SDS011;5256;48.728;9.140;2023-05-09T07:07:42;0.20;;;0.20;;
10418;SDS011;5256;48.728;9.140;2023-05-09T07:10:08;0.30;;;0.30;;
10418;SDS011;5256;48.728;9.140;2023-05-09T07:12:34;0.40;;;0.40;;
10418;SDS011;5256;48.728;9.140;2023-05-09T07:14:59;0.20;;;0.20;;
10418;SDS011;5256;48.728;9.140;2023-05-09T07:17:25;0.20;;;0.20;;
10418;SDS011;5256;48.728;9.140;2023-05-09T07:19:51;0.20;;;0.20;;
10418;SDS011;5256;48.728;9.140;2023-05-09T07:22:16;0.20;;;0.20;;
10418;SDS011;5256;48.728;9.140;2023-05-09T07:24:42;0.10;;;0.10;;
10418;SDS011;5256;48.728;9.140;2023-05-09T07:27:10;0.20;;;0.20;;
10418;SDS011;5256;48.728;9.140;2023-05-09T07:29:36;0.20;;;0.20;;
10418;SDS011;5256;48.728;9.140;2023-05-09T07:32:01;0.20;;;0.20;;
10418;SDS011;5256;48.728;9.140;2023-05-09T07:34:27;0.23;;;0.23;;
10418;SDS011;5256;48.728;9.140;2023-05-09T07:36:52;0.20;;;0.20;;
10418;SDS011;5256;48.728;9.140;2023-05-09T07:39:18;0.10;;;0.10;;
10418;SDS011;5256;48.728;9.140;2023-05-09T07:41:43;0.20;;;0.20;;
10418;SDS011;5256;48.728;9.140;2023-05-09T07:44:09;0.20;;;0.20;;
10418;SDS011;5256;48.728;9.140;2023-05-09T07:46:35;0.20;;;0.20;;
10418;SDS011;5256;48.728;9.140;2023-05-09T07:49:05;0.20;;;0.20;;
10418;SDS011;5256;48.728;9.140;2023-05-09T07:51:32;0.10;;;0.10;;
10418;SDS011;5256;48.728;9.140;2023-05-09T07:53:57;0.20;;;0.20;;
10418;SDS011;5256;48.728;9.140;2023-05-09T07:56:23;0.23;;;0.23;;
10418;SDS011;5256;48.728;9.140;2023-05-09T07:58:48;0.30;;;0.30;;
10418;SDS011;5256;48.728;9.140;2023-05-09T08:01:14;0.30;;;0.30;;
10418;SDS011;5256;48.728;9.140;2023-05-09T08:03:40;0.20;;;0.20;;
10418;SDS011;5256;48.728;9.140;2023-05-09T08:06:05;0.20;;;0.20;;
10418;SDS011;5256;48.728;9.140;2023-05-09T08:08:31;0.10;;;0.10;;
10418;SDS011;5256;48.728;9.140;2023-05-09T08:10:57;0.13;;;0.13;;
10418;SDS011;5256;48.728;9.140;2023-05-09T08:13:23;0.10;;;0.10;;
10418;SDS011;5256;48.728;9.140;2023-05-09T08:15:49;0.10;;;0.10;;
10418;SDS011;5256;48.728;9.140;2023-05-09T08:18:14;0.20;;;0.20;;
10418;SDS011;5256;48.728;9.140;2023-05-09T08:20:40;0.10;;;0.10;;
10418;SDS011;5256;48.728;9.140;2023-05-09T08:23:06;0.20;;;0.20;;
10418;SDS011;5256;48.728;9.140;2023-05-09T08:25:31;0.20;;;0.20;;
10418;SDS011;5256;48.728;9.140;2023-05-09T08:27:57;0.10;;;0.10;;
10418;SDS011;5256;48.728;9.140;2023-05-09T08:30:22;0.10;;;0.10;;
10418;SDS011;5256;48.728;9.140;2023-05-09T08:32:48;0.10;;;0.10;;
10418;SDS011;5256;48.728;9.140;2023-05-09T08:35:14;0.10;;;0.10;;
10418;SDS011;5256;48.728;9.140;2023-05-09T08:37:39;0.10;;;0.10;;
10418;SDS011;5256;48.728;9.140;2023-05-09T08:40:05;0.30;;;0.30;;
10418;SDS011;5256;48.728;9.140;2023-05-09T08:42:31;0.20;;;0.20;;
10418;SDS011;5256;48.728;9.140;2023-05-09T08:44:59;0.10;;;0.10;;
10418;SDS011;5256;48.728;9.140;2023-05-09T08:47:30;0.20;;;0.20;;
10418;SDS011;5256;48.728;9.140;2023-05-09T08:50:00;0.20;;;0.20;;
10418;SDS011;5256;48.728;9.140;2023-05-09T08:52:27;0.17;;;0.17;;
10418;SDS011;5256;48.728;9.140;2023-05-09T08:54:54;0.20;;;0.20;;
10418;SDS011;5256;48.728;9.140;2023-05-09T08:57:20;0.27;;;0.27;;
10418;SDS011;5256;48.728;9.140;2023-05-09T08:59:47;0.20;;;0.20;;
10418;SDS011;5256;48.728;9.140;2023-05-09T09:02:15;0.10;;;0.10;;
10418;SDS011;5256;48.728;9.140;2023-05-09T09:04:41;0.10;;;0.10;;
10418;SDS011;5256;48.728;9.140;2023-05-09T09:07:08;0.10;;;0.10;;
10418;SDS011;5256;48.728;9.140;2023-05-09T09:09:35;0.10;;;0.10;;
10418;SDS011;5256;48.728;9.140;2023-05-09T09:12:01;0.20;;;0.20;;
10418;SDS011;5256;48.728;9.140;2023-05-09T09:14:31;0.10;;;0.10;;
10418;SDS011;5256;48.728;9.140;2023-05-09T09:17:02;0.20;;;0.20;;
10418;SDS011;5256;48.728;9.140;2023-05-09T09:19:30;0.20;;;0.20;;
10418;SDS011;5256;48.728;9.140;2023-05-09T09:22:00;0.17;;;0.17;;
10418;SDS011;5256;48.728;9.140;2023-05-09T09:24:28;0.23;;;0.23;;
10418;SDS011;5256;48.728;9.140;2023-05-09T09:26:55;0.30;;;0.30;;
10418;SDS011;5256;48.728;9.140;2023-05-09T09:29:21;0.20;;;0.20;;
10418;SDS011;5256;48.728;9.140;2023-05-09T09:31:50;0.23;;;0.23;;
10418;SDS011;5256;48.728;9.140;2023-05-09T09:34:19;0.20;;;0.20;;
10418;SDS011;5256;48.728;9.140;2023-05-09T09:36:46;0.20;;;0.20;;
10418;SDS011;5256;48.728;9.140;2023-05-09T09:39:12;0.20;;;0.20;;
10418;SDS011;5256;48.728;9.140;2023-05-09T09:41:39;0.20;;;0.20;;
10418;SDS011;5256;48.728;9.140;2023-05-09T09:44:05;0.20;;;0.20;;
10418;SDS011;5256;48.728;9.140;2023-05-09T09:46:39;0.20;;;0.20;;
10418;SDS011;5256;48.728;9.140;2023-05-09T09:49:16;0.17;;;0.17;;
10418;SDS011;5256;48.728;9.140;2023-05-09T09:51:43;0.20;;;0.20;;
10418;SDS011;5256;48.728;9.140;2023-05-09T09:54:10;0.30;;;0.30;;
10418;SDS011;5256;48.728;9.140;2023-05-09T09:56:44;0.20;;;0.20;;
10418;SDS011;5256;48.728;9.140;2023-05-09T09:59:14;0.20;;;0.20;;
10418;SDS011;5256;48.728;9.140;2023-05-09T10:01:53;0.20;;;0.20;;
10418;SDS011;5256;48.728;9.140;2023-05-09T10:04:20;0.23;;;0.23;;
10418;SDS011;5256;48.728;9.140;2023-05-09T10:06:53;0.20;;;0.20;;
10418;SDS011;5256;48.728;9.140;2023-05-09T10:09:21;0.30;;;0.30;;
10418;SDS011;5256;48.728;9.140;2023-05-09T10:11:48;0.30;;;0.30;;
10418;SDS011;5256;48.728;9.140;2023-05-09T10:14:17;0.20;;;0.20;;
10418;SDS011;5256;48.728;9.140;2023-05-09T10:16:44;0.20;;;0.20;;
10418;SDS011;5256;48.728;9.140;2023-05-09T10:19:11;0.10;;;0.10;;
10418;SDS011;5256;48.728;9.140;2023-05-09T10:21:38;0.10;;;0.10;;
10418;SDS011;5256;48.728;9.140;2023-05-09T10:24:04;0.20;;;0.20;;
10418;SDS011;5256;48.728;9.140;2023-05-09T10:26:31;0.10;;;0.10;;
10418;SDS011;5256;48.728;9.140;2023-05-09T10:29:02;0.10;;;0.10;;
10418;SDS011;5256;48.728;9.140;2023-05-09T10:31:31;0.10;;;0.10;;
10418;SDS011;5256;48.728;9.140;2023-05-09T10:34:01;0.13;;;0.13;;
10418;SDS011;5256;48.728;9.140;2023-05-09T10:36:30;0.10;;;0.10;;
10418;SDS011;5256;48.728;9.140;2023-05-09T10:38:57;0.10;;;0.10;;
10418;SDS011;5256;48.728;9.140;2023-05-09T10:41:22;0.10;;;0.10;;
10418;SDS011;5256;48.728;9.140;2023-05-09T10:43:49;0.10;;;0.10;;
10418;SDS011;5256;48.728;9.140;2023-05-09T10:46:15;0.10;;;0.10;;
10418;SDS011;5256;48.728;9.140;2023-05-09T10:48:41;0.13;;;0.13;;
10418;SDS011;5256;48.728;9.140;2023-05-09T10:51:08;0.17;;;0.17;;
10418;SDS011;5256;48.728;9.140;2023-05-09T10:53:40;0.10;;;0.10;;
10418;SDS011;5256;48.728;9.140;2023-05-09T10:56:25;0.10;;;0.10;;
10418;SDS011;5256;48.728;9.140;2023-05-09T10:58:55;0.10;;;0.10;;
10418;SDS011;5256;48.728;9.140;2023-05-09T11:01:31;0.10;;;0.10;;
10418;SDS011;5256;48.728;9.140;2023-05-09T11:04:10;0.20;;;0.20;;
10418;SDS011;5256;48.728;9.140;2023-05-09T11:06:46;0.20;;;0.20;;
10418;SDS011;5256;48.728;9.140;2023-05-09T11:17:09;0.20;;;0.20;;
10418;SDS011;5256;48.728;9.140;2023-05-09T11:19:37;0.10;;;0.10;;
10418;SDS011;5256;48.728;9.140;2023-05-09T11:22:16;0.20;;;0.20;;
10418;SDS011;5256;48.728;9.140;2023-05-09T11:24:45;0.20;;;0.20;;
10418;SDS011;5256;48.728;9.140;2023-05-09T11:27:21;0.20;;;0.20;;
10418;SDS011;5256;48.728;9.140;2023-05-09T11:29:51;0.30;;;0.30;;
10418;SDS011;5256;48.728;9.140;2023-05-09T11:32:20;0.17;;;0.17;;
10418;SDS011;5256;48.728;9.140;2023-05-09T11:34:46;0.10;;;0.10;;
10418;SDS011;5256;48.728;9.140;2023-05-09T11:37:15;0.20;;;0.20;;
10418;SDS011;5256;48.728;9.140;2023-05-09T11:40:00;0.10;;;0.10;;
10418;SDS011;5256;48.728;9.140;2023-05-09T11:42:29;0.10;;;0.10;;
10418;SDS011;5256;48.728;9.140;2023-05-09T11:44:55;0.10;;;0.10;;
10418;SDS011;5256;48.728;9.140;2023-05-09T11:47:22;0.20;;;0.20;;
10418;SDS011;5256;48.728;9.140;2023-05-09T11:49:48;0.10;;;0.10;;
10418;SDS011;5256;48.728;9.140;2023-05-09T11:52:15;0.20;;;0.20;;
10418;SDS011;5256;48.728;9.140;2023-05-09T11:54:40;0.20;;;0.20;;
10418;SDS011;5256;48.728;9.140;2023-05-09T11:57:06;0.20;;;0.20;;
10418;SDS011;5256;48.728;9.140;2023-05-09T11:59:32;0.20;;;0.20;;
10418;SDS011;5256;48.728;9.140;2023-05-09T12:02:02;0.20;;;0.20;;
10418;SDS011;5256;48.728;9.140;2023-05-09T12:04:29;0.10;;;0.10;;
10418;SDS011;5256;48.728;9.140;2023-05-09T12:06:59;0.10;;;0.10;;
10418;SDS011;5256;48.728;9.140;2023-05-09T12:09:28;0.10;;;0.10;;
10418;SDS011;5256;48.728;9.140;2023-05-09T12:11:58;0.20;;;0.20;;
10418;SDS011;5256;48.728;9.140;2023-05-09T12:14:28;0.10;;;0.10;;
10418;SDS011;5256;48.728;9.140;2023-05-09T12:16:54;0.10;;;0.10;;
10418;SDS011;5256;48.728;9.140;2023-05-09T12:19:21;0.10;;;0.10;;
10418;SDS011;5256;48.728;9.140;2023-05-09T12:21:48;0.10;;;0.10;;
10418;SDS011;5256;48.728;9.140;2023-05-09T12:24:20;0.17;;;0.17;;
10418;SDS011;5256;48.728;9.140;2023-05-09T12:26:46;0.10;;;0.10;;
10418;SDS011;5256;48.728;9.140;2023-05-09T12:29:13;0.20;;;0.20;;
10418;SDS011;5256;48.728;9.140;2023-05-09T12:31:42;0.10;;;0.10;;
10418;SDS011;5256;48.728;9.140;2023-05-09T12:34:08;0.20;;;0.20;;
10418;SDS011;5256;48.728;9.140;2023-05-09T12:36:34;0.10;;;0.10;;
10418;SDS011;5256;48.728;9.140;2023-05-09T12:39:01;0.17;;;0.17;;
10418;SDS011;5256;48.728;9.140;2023-05-09T12:41:33;0.10;;;0.10;;
10418;SDS011;5256;48.728;9.140;2023-05-09T12:43:58;0.20;;;0.20;;
10418;SDS011;5256;48.728;9.140;2023-05-09T12:46:25;0.20;;;0.20;;
10418;SDS011;5256;48.728;9.140;2023-05-09T12:48:50;0.17;;;0.17;;
10418;SDS011;5256;48.728;9.140;2023-05-09T12:51:19;0.10;;;0.10;;
10418;SDS011;5256;48.728;9.140;2023-05-09T12:53:46;0.10;;;0.10;;
10418;SDS011;5256;48.728;9.140;2023-05-09T12:56:16;0.10;;;0.10;;
10418;SDS011;5256;48.728;9.140;2023-05-09T12:58:47;0.20;;;0.20;;
10418;SDS011;5256;48.728;9.140;2023-05-09T13:01:17;0.10;;;0.10;;
10418;SDS011;5256;48.728;9.140;2023-05-09T13:03:43;0.20;;;0.20;;
10418;SDS011;5256;48.728;9.140;2023-05-09T13:06:12;0.10;;;0.10;;
10418;SDS011;5256;48.728;9.140;2023-05-09T13:08:38;0.13;;;0.13;;
10418;SDS011;5256;48.728;9.140;2023-05-09T13:11:04;0.10;;;0.10;;
10418;SDS011;5256;48.728;9.140;2023-05-09T13:13:31;0.10;;;0.10;;
10418;SDS011;5256;48.728;9.140;2023-05-09T13:15:57;0.10;;;0.10;;
10418;SDS011;5256;48.728;9.140;2023-05-09T13:18:23;0.20;;;0.20;;
10418;SDS011;5256;48.728;9.140;2023-05-09T13:20:49;0.17;;;0.17;;
10418;SDS011;5256;48.728;9.140;2023-05-09T13:23:15;0.10;;;0.10;;
10418;SDS011;5256;48.728;9.140;2023-05-09T13:25:41;0.10;;;0.10;;
10418;SDS011;5256;48.728;9.140;2023-05-09T13:28:06;0.20;;;0.20;;
10418;SDS011;5256;48.728;9.140;2023-05-09T13:30:32;0.10;;;0.10;;
10418;SDS011;5256;48.728;9.140;2023-05-09T13:32:58;0.20;;;0.20;;
10418;SDS011;5256;48.728;9.140;2023-05-09T13:35:23;0.10;;;0.10;;
10418;SDS011;5256;48.728;9.140;2023-05-09T13:37:49;0.10;;;0.10;;
10418;SDS011;5256;48.728;9.140;2023-05-09T13:40:15;0.17;;;0.17;;
10418;SDS011;5256;48.728;9.140;2023-05-09T13:42:40;0.10;;;0.10;;
10418;SDS011;5256;48.728;9.140;2023-05-09T13:45:06;0.10;;;0.10;;
10418;SDS011;5256;48.728;9.140;2023-05-09T13:47:32;0.10;;;0.10;;
10418;SDS011;5256;48.728;9.140;2023-05-09T13:49:58;0.20;;;0.20;;
10418;SDS011;5256;48.728;9.140;2023-05-09T13:52:23;0.20;;;0.20;;
10418;SDS011;5256;48.728;9.140;2023-05-09T13:54:49;0.20;;;0.20;;
10418;SDS011;5256;48.728;9.140;2023-05-09T13:57:14;0.10;;;0.10;;
10418;SDS011;5256;48.728;9.140;2023-05-09T13:59:40;0.20;;;0.20;;
10418;SDS011;5256;48.728;9.140;2023-05-09T14:02:06;0.20;;;0.20;;
10418;SDS011;5256;48.728;9.140;2023-05-09T14:04:32;0.30;;;0.30;;
10418;SDS011;5256;48.728;9.140;2023-05-09T14:06:58;0.20;;;0.20;;
10418;SDS011;5256;48.728;9.140;2023-05-09T14:09:25;0.10;;;0.10;;
10418;SDS011;5256;48.728;9.140;2023-05-09T14:11:52;0.20;;;0.20;;
10418;SDS011;5256;48.728;9.140;2023-05-09T14:14:18;0.10;;;0.10;;
10418;SDS011;5256;48.728;9.140;2023-05-09T14:16:44;0.20;;;0.20;;
10418;SDS011;5256;48.728;9.140;2023-05-09T14:19:11;0.20;;;0.20;;
10418;SDS011;5256;48.728;9.140;2023-05-09T14:21:39;0.10;;;0.10;;
10418;SDS011;5256;48.728;9.140;2023-05-09T14:24:06;0.20;;;0.20;;
10418;SDS011;5256;48.728;9.140;2023-05-09T14:26:31;0.20;;;0.20;;
10418;SDS011;5256;48.728;9.140;2023-05-09T14:28:57;0.20;;;0.20;;
10418;SDS011;5256;48.728;9.140;2023-05-09T14:31:22;0.20;;;0.20;;
10418;SDS011;5256;48.728;9.140;2023-05-09T14:33:48;0.20;;;0.20;;
10418;SDS011;5256;48.728;9.140;2023-05-09T14:36:13;0.10;;;0.10;;
10418;SDS011;5256;48.728;9.140;2023-05-09T14:38:39;0.20;;;0.20;;
10418;SDS011;5256;48.728;9.140;2023-05-09T14:41:05;0.10;;;0.10;;
10418;SDS011;5256;48.728;9.140;2023-05-09T14:43:31;0.20;;;0.20;;
10418;SDS011;5256;48.728;9.140;2023-05-09T14:45:57;0.23;;;0.23;;
10418;SDS011;5256;48.728;9.140;2023-05-09T14:48:22;0.20;;;0.20;;
10418;SDS011;5256;48.728;9.140;2023-05-09T14:50:48;0.10;;;0.10;;
10418;SDS011;5256;48.728;9.140;2023-05-09T14:53:17;0.20;;;0.20;;
10418;SDS011;5256;48.728;9.140;2023-05-09T14:55:42;0.17;;;0.17;;
10418;SDS011;5256;48.728;9.140;2023-05-09T14:58:08;0.10;;;0.10;;
10418;SDS011;5256;48.728;9.140;2023-05-09T15:00:33;0.17;;;0.17;;
10418;SDS011;5256;48.728;9.140;2023-05-09T15:02:59;0.10;;;0.10;;
10418;SDS011;5256;48.728;9.140;2023-05-09T15:05:24;0.20;;;0.20;;
10418;SDS011;5256;48.728;9.140;2023-05-09T15:07:50;0.13;;;0.13;;
10418;SDS011;5256;48.728;9.140;2023-05-09T15:10:16;0.10;;;0.10;;
10418;SDS011;5256;48.728;9.140;2023-05-09T15:12:41;0.20;;;0.20;;
10418;SDS011;5256;48.728;9.140;2023-05-09T15:17:41;0.10;;;0.10;;
10418;SDS011;5256;48.728;9.140;2023-05-09T15:20:07;0.20;;;0.20;;